KGTF/GTF METAR and TAF weather

Enter ICAO airport designator
Station Type Date Time Source
KGTF METAR 2019/12/10 05:53 UTC NOAA

KGTF 100553Z 09005KT 10SM OVC100 M08/M11 A3009 RMK AO2 SLP246 T10831106 11028 21089 58000


Station Type Date Time Source
KGTF Decoded METAR 2019/12/10 05:53 UTC NOAA

GREAT FALLS INTERNATIONAL, MT, United States (KGTF) 47-28N 111-23W 1119M
Dec 10, 2019 - 12:53 AM EST / 2019.12.10 0553 UTC
Wind: from the E (090 degrees) at 6 MPH (5 KT):0
Visibility: 10 mile(s):0
Sky conditions: overcast
Temperature: 17.1 F (-8.3 C)
Windchill: 8 F (-13 C):1
Dew Point: 12.9 F (-10.6 C)
Relative Humidity: 83%
Pressure (altimeter): 30.09 in. Hg (1018 hPa)
Pressure tendency: 0.00 inches (0.0 hPa) lower than three hours ago
ob: KGTF 100553Z 09005KT 10SM OVC100 M08/M11 A3009 RMK AO2 SLP246 T10831106 11028 21089 58000
cycle: 6

Station Type Date Time Source
KGTF TAF 2019/12/10 06:22 UTC NOAA

TAF KGTF 100520Z 1006/1106 VRB05KT P6SM BKN030
TEMPO 1007/1009 3SM BR OVC004
FM101000 22010KT P6SM OVC070
FM102100 22012KT P6SM BKN120

Example: see airport list